createdAt,value
2022-12-15T00:00:21.313Z,-4.20
2022-12-15T00:03:28.148Z,-4.19
2022-12-15T00:06:15.206Z,-4.17
2022-12-15T00:09:01.775Z,-4.16
2022-12-15T00:11:48.467Z,-4.13
2022-12-15T00:14:35.053Z,-4.12
2022-12-15T00:17:21.615Z,-4.09
2022-12-15T00:20:08.224Z,-4.05
2022-12-15T00:22:54.544Z,-4.02
2022-12-15T00:25:41.360Z,-4.01
2022-12-15T00:28:28.146Z,-3.99
2022-12-15T00:31:16.758Z,-3.99
2022-12-15T00:34:03.625Z,-3.99
2022-12-15T00:36:50.214Z,-3.96
2022-12-15T00:39:18.080Z,-3.95
2022-12-15T00:41:45.860Z,-3.93
2022-12-15T00:44:18.946Z,-3.91
2022-12-15T00:46:54.476Z,-3.88
2022-12-15T00:49:42.671Z,-3.86
2022-12-15T00:52:29.693Z,-3.87
2022-12-15T00:55:16.536Z,-3.87
2022-12-15T00:58:03.407Z,-3.84
2022-12-15T01:00:49.968Z,-3.82
2022-12-15T01:03:40.394Z,-3.81
2022-12-15T01:06:29.580Z,-3.80
2022-12-15T01:09:16.209Z,-3.80
2022-12-15T01:12:03.418Z,-3.78
2022-12-15T01:14:50.611Z,-3.77
2022-12-15T01:17:37.591Z,-3.76
2022-12-15T01:20:18.666Z,-3.72
2022-12-15T01:22:55.981Z,-3.68
2022-12-15T01:25:25.509Z,-3.62
2022-12-15T01:27:53.541Z,-3.55
2022-12-15T01:30:25.554Z,-3.50
2022-12-15T01:32:53.863Z,-3.44
2022-12-15T01:35:21.702Z,-3.40
2022-12-15T01:37:50.325Z,-3.39
2022-12-15T01:40:39.615Z,-3.38
2022-12-15T01:43:25.081Z,-3.37
2022-12-15T01:46:14.240Z,-3.36
2022-12-15T01:48:48.896Z,-3.37
2022-12-15T01:51:25.249Z,-3.35
2022-12-15T01:53:58.321Z,-3.34
2022-12-15T01:56:29.143Z,-3.33
2022-12-15T01:59:02.291Z,-3.29
2022-12-15T02:01:30.518Z,-3.25
2022-12-15T02:03:58.498Z,-3.21
2022-12-15T02:06:26.606Z,-3.17
2022-12-15T02:08:55.938Z,-3.14
2022-12-15T02:12:02.395Z,-3.12
2022-12-15T02:14:48.656Z,-3.13
2022-12-15T02:17:27.380Z,-3.14
2022-12-15T02:20:07.443Z,-3.15
2022-12-15T02:23:13.800Z,-3.16
2022-12-15T02:26:00.059Z,-3.18
2022-12-15T02:29:04.779Z,-3.19
2022-12-15T02:31:50.455Z,-3.21
2022-12-15T02:34:53.735Z,-3.20
2022-12-15T02:37:25.170Z,-3.21
2022-12-15T02:39:52.957Z,-3.21
2022-12-15T02:42:21.579Z,-3.22
2022-12-15T02:44:56.673Z,-3.21
2022-12-15T02:47:32.734Z,-3.21
2022-12-15T02:50:12.470Z,-3.22
2022-12-15T02:52:52.069Z,-3.22
2022-12-15T02:55:50.350Z,-3.22
2022-12-15T02:58:29.811Z,-3.24
2022-12-15T03:01:24.990Z,-3.22
2022-12-15T03:03:53.151Z,-3.22
2022-12-15T03:06:20.917Z,-3.20
2022-12-15T03:08:50.225Z,-3.18
2022-12-15T03:11:17.980Z,-3.15
2022-12-15T03:13:46.146Z,-3.14
2022-12-15T03:16:17.717Z,-3.15
2022-12-15T03:18:45.439Z,-3.14
2022-12-15T03:21:13.613Z,-3.13
2022-12-15T03:23:41.273Z,-3.13
2022-12-15T03:26:08.952Z,-3.14
2022-12-15T03:28:36.598Z,-3.14
2022-12-15T03:31:04.483Z,-3.15
2022-12-15T03:33:34.042Z,-3.15
2022-12-15T03:36:02.199Z,-3.16
2022-12-15T03:38:29.905Z,-3.17
2022-12-15T03:40:57.598Z,-3.18
2022-12-15T03:43:25.311Z,-3.18
2022-12-15T03:45:53.030Z,-3.19
2022-12-15T03:48:21.593Z,-3.20
2022-12-15T03:50:50.116Z,-3.20
2022-12-15T03:53:17.788Z,-3.21
2022-12-15T03:55:45.499Z,-3.20
2022-12-15T03:58:13.218Z,-3.21
2022-12-15T04:00:40.881Z,-3.22
2022-12-15T04:03:10.850Z,-3.24
2022-12-15T04:05:39.240Z,-3.27
2022-12-15T04:08:06.986Z,-3.27
2022-12-15T04:10:35.508Z,-3.27
2022-12-15T04:13:05.027Z,-3.27
2022-12-15T04:15:33.847Z,-3.27
2022-12-15T04:18:03.439Z,-3.26
2022-12-15T04:20:31.491Z,-3.26
2022-12-15T04:23:00.329Z,-3.26
2022-12-15T04:25:47.042Z,-3.26
2022-12-15T04:28:33.541Z,-3.29
2022-12-15T04:31:26.923Z,-3.31
2022-12-15T04:34:20.248Z,-3.33
2022-12-15T04:37:09.304Z,-3.34
2022-12-15T04:40:02.060Z,-3.35
2022-12-15T04:42:49.148Z,-3.35
2022-12-15T04:45:38.281Z,-3.35
2022-12-15T04:48:24.873Z,-3.37
2022-12-15T04:51:11.369Z,-3.38
2022-12-15T04:53:57.837Z,-3.38
2022-12-15T04:56:44.429Z,-3.39
2022-12-15T04:59:30.917Z,-3.42
2022-12-15T05:02:17.747Z,-3.43
2022-12-15T05:05:04.898Z,-3.45
2022-12-15T05:07:51.468Z,-3.45
2022-12-15T05:10:38.040Z,-3.45
2022-12-15T05:13:26.083Z,-3.45
2022-12-15T05:16:12.656Z,-3.46
2022-12-15T05:18:59.355Z,-3.46
2022-12-15T05:21:45.952Z,-3.47
2022-12-15T05:24:32.592Z,-3.49
2022-12-15T05:27:19.120Z,-3.51
2022-12-15T05:30:05.770Z,-3.51
2022-12-15T05:32:33.534Z,-3.51
2022-12-15T05:35:01.530Z,-3.50
2022-12-15T05:37:29.287Z,-3.48
2022-12-15T05:39:57.008Z,-3.46
2022-12-15T05:42:24.687Z,-3.45
2022-12-15T05:44:52.384Z,-3.45
2022-12-15T05:47:20.033Z,-3.45
2022-12-15T05:49:47.706Z,-3.45
2022-12-15T05:52:15.366Z,-3.45
2022-12-15T05:54:43.104Z,-3.45
2022-12-15T05:57:10.847Z,-3.44
2022-12-15T05:59:38.583Z,-3.44
2022-12-15T06:02:06.435Z,-3.44
2022-12-15T06:04:34.217Z,-3.42
2022-12-15T06:07:01.951Z,-3.42
2022-12-15T06:09:29.752Z,-3.41
2022-12-15T06:11:57.584Z,-3.41
2022-12-15T06:14:25.898Z,-3.40
2022-12-15T06:16:53.627Z,-3.40
2022-12-15T06:19:22.169Z,-3.40
2022-12-15T06:21:49.843Z,-3.39
2022-12-15T06:24:17.828Z,-3.38
2022-12-15T06:26:45.875Z,-3.39
2022-12-15T06:29:13.991Z,-3.39
2022-12-15T06:31:42.877Z,-3.40
2022-12-15T06:34:12.908Z,-3.41
2022-12-15T06:36:41.375Z,-3.43
2022-12-15T06:39:12.205Z,-3.43
2022-12-15T06:41:40.089Z,-3.43
2022-12-15T06:44:08.016Z,-3.43
2022-12-15T06:46:35.704Z,-3.43
2022-12-15T06:49:03.643Z,-3.42
2022-12-15T06:51:32.270Z,-3.41
2022-12-15T06:53:59.970Z,-3.41
2022-12-15T06:56:34.773Z,-3.41
2022-12-15T06:59:06.968Z,-3.42
2022-12-15T07:01:35.707Z,-3.46
2022-12-15T07:04:05.560Z,-3.43
2022-12-15T07:06:37.874Z,-3.41
2022-12-15T07:09:08.080Z,-3.39
2022-12-15T07:11:36.033Z,-3.38
2022-12-15T07:14:04.379Z,-3.36
2022-12-15T07:16:32.336Z,-3.33
2022-12-15T07:19:00.137Z,-3.32
2022-12-15T07:21:27.977Z,-3.31
2022-12-15T07:23:57.235Z,-3.28
2022-12-15T07:26:26.163Z,-3.26
2022-12-15T07:28:54.520Z,-3.24
2022-12-15T07:31:23.204Z,-3.22
2022-12-15T07:33:52.585Z,-3.20
2022-12-15T07:36:20.682Z,-3.16
2022-12-15T07:38:50.053Z,-3.13
2022-12-15T07:41:20.131Z,-3.11
2022-12-15T07:43:48.418Z,-3.08
2022-12-15T07:46:17.057Z,-3.03
2022-12-15T07:48:50.942Z,-2.99
2022-12-15T07:51:20.894Z,-2.99
2022-12-15T07:53:51.054Z,-3.00
2022-12-15T07:56:20.203Z,-2.99
2022-12-15T07:58:48.926Z,-3.01
2022-12-15T08:01:17.116Z,-3.01
2022-12-15T08:03:45.490Z,-3.01
2022-12-15T08:06:15.084Z,-3.01
2022-12-15T08:08:44.343Z,-3.00
2022-12-15T08:11:14.296Z,-3.00
2022-12-15T08:16:33.385Z,-2.97
2022-12-15T08:19:01.148Z,-2.97
2022-12-15T08:21:31.293Z,-2.95
2022-12-15T08:24:00.938Z,-2.92
2022-12-15T08:26:30.873Z,-2.91
2022-12-15T08:29:31.839Z,-2.87
2022-12-15T08:31:52.129Z,-2.89
2022-12-15T08:34:20.617Z,-2.91
2022-12-15T08:36:48.569Z,-2.92
2022-12-15T08:39:16.546Z,-2.92
2022-12-15T08:41:44.751Z,-2.90
2022-12-15T08:44:12.680Z,-2.89
2022-12-15T08:46:40.431Z,-2.88
2022-12-15T08:49:08.833Z,-2.87
2022-12-15T08:51:36.575Z,-2.87
2022-12-15T08:54:04.438Z,-2.84
2022-12-15T08:56:32.511Z,-2.81
2022-12-15T08:59:01.662Z,-2.79
2022-12-15T09:01:32.263Z,-2.78
2022-12-15T09:04:01.428Z,-2.77
2022-12-15T09:06:31.911Z,-2.77
2022-12-15T09:09:02.137Z,-2.77
2022-12-15T09:11:30.598Z,-2.76
2022-12-15T09:13:58.400Z,-2.75
2022-12-15T09:16:27.998Z,-2.71
2022-12-15T09:18:58.273Z,-2.70
2022-12-15T09:21:28.375Z,-2.68
2022-12-15T09:24:01.752Z,-2.66
2022-12-15T09:26:31.551Z,-2.64
2022-12-15T09:28:59.677Z,-2.63
2022-12-15T09:31:30.626Z,-2.60
2022-12-15T09:33:59.817Z,-2.55
2022-12-15T09:36:28.527Z,-2.50
2022-12-15T09:38:56.441Z,-2.46
2022-12-15T09:41:27.290Z,-2.43
2022-12-15T09:43:56.690Z,-2.39
2022-12-15T09:46:30.205Z,-2.37
2022-12-15T09:49:01.489Z,-2.35
2022-12-15T09:51:36.917Z,-2.36
2022-12-15T09:54:05.452Z,-2.35
2022-12-15T09:56:41.103Z,-2.33
2022-12-15T09:59:21.071Z,-2.33
2022-12-15T10:01:51.489Z,-2.34
2022-12-15T10:04:21.300Z,-2.36
2022-12-15T10:07:05.930Z,-2.40
2022-12-15T10:09:33.779Z,-2.46
2022-12-15T10:12:18.921Z,-2.49
2022-12-15T10:14:52.456Z,-2.49
2022-12-15T10:17:25.390Z,-2.47
2022-12-15T10:20:22.694Z,-2.42
2022-12-15T10:22:51.339Z,-2.37
2022-12-15T10:25:31.685Z,-2.32
2022-12-15T10:28:36.856Z,-2.29
2022-12-15T10:31:15.811Z,-2.30
2022-12-15T10:36:33.280Z,-2.29
2022-12-15T10:39:01.015Z,-2.30
2022-12-15T10:41:32.478Z,-2.31
2022-12-15T10:44:02.732Z,-2.29
2022-12-15T10:46:32.337Z,-2.26
2022-12-15T10:49:06.451Z,-2.22
2022-12-15T10:51:43.798Z,-2.18
2022-12-15T10:54:16.346Z,-2.20
2022-12-15T10:56:51.324Z,-2.23
2022-12-15T10:59:44.684Z,-2.23
2022-12-15T11:02:24.499Z,-2.22
2022-12-15T11:05:16.338Z,-2.18
2022-12-15T11:07:55.868Z,-2.17
2022-12-15T11:10:50.079Z,-2.12
2022-12-15T11:13:23.062Z,-2.05
2022-12-15T11:15:55.133Z,-1.99
2022-12-15T11:18:29.210Z,-1.93
2022-12-15T11:21:05.761Z,-1.87
2022-12-15T11:23:58.549Z,-1.78
2022-12-15T11:26:38.705Z,-1.71
2022-12-15T11:29:17.660Z,-1.66
2022-12-15T11:31:45.709Z,-1.63
2022-12-15T11:34:23.736Z,-1.58
2022-12-15T11:37:14.841Z,-1.56
2022-12-15T11:40:20.705Z,-1.60
2022-12-15T11:43:16.863Z,-1.66
2022-12-15T11:46:05.906Z,-1.66
2022-12-15T11:48:48.974Z,-1.64
2022-12-15T11:51:23.149Z,-1.67
2022-12-15T11:54:07.204Z,-1.71
2022-12-15T11:57:01.043Z,-1.71
2022-12-15T11:59:53.414Z,-1.73
2022-12-15T12:02:39.920Z,-1.80
2022-12-15T12:05:37.116Z,-1.86
2022-12-15T12:08:24.341Z,-1.90
2022-12-15T12:11:04.244Z,-1.91
2022-12-15T12:14:00.101Z,-1.93
2022-12-15T12:16:55.316Z,-1.91
2022-12-15T12:19:44.362Z,-1.96
2022-12-15T12:22:29.475Z,-2.02
2022-12-15T12:25:04.394Z,-2.02
2022-12-15T12:27:53.125Z,-2.01
2022-12-15T12:30:28.042Z,-1.98
2022-12-15T12:33:02.001Z,-1.97
2022-12-15T12:35:45.774Z,-1.96
2022-12-15T12:38:14.091Z,-1.96
2022-12-15T12:40:57.110Z,-1.95
2022-12-15T12:46:28.930Z,-1.99
2022-12-15T12:49:13.858Z,-2.02
2022-12-15T12:51:42.897Z,-2.02
2022-12-15T12:54:32.516Z,-2.01
2022-12-15T12:57:01.241Z,-2.00
2022-12-15T12:59:29.028Z,-1.98
2022-12-15T13:02:15.324Z,-1.93
2022-12-15T13:04:50.310Z,-1.91
2022-12-15T13:07:34.660Z,-1.89
2022-12-15T13:10:08.524Z,-1.88
2022-12-15T13:12:52.006Z,-1.89
2022-12-15T13:15:29.996Z,-1.90
2022-12-15T13:18:13.122Z,-1.89
2022-12-15T13:20:41.998Z,-1.92
2022-12-15T13:23:22.208Z,-1.91
2022-12-15T13:25:55.942Z,-1.92
2022-12-15T13:28:45.685Z,-1.94
2022-12-15T13:31:23.131Z,-1.97
2022-12-15T13:33:51.341Z,-2.00
2022-12-15T13:36:38.301Z,-2.01
2022-12-15T13:39:12.590Z,-2.06
2022-12-15T13:42:15.062Z,-2.11
2022-12-15T13:44:40.615Z,-2.15
2022-12-15T13:47:26.583Z,-2.19
2022-12-15T13:50:15.611Z,-2.24
2022-12-15T13:55:53.138Z,-2.38
2022-12-15T13:58:22.055Z,-2.44
2022-12-15T14:00:58.054Z,-2.48
2022-12-15T14:03:27.000Z,-2.52
2022-12-15T14:05:58.830Z,-2.56
2022-12-15T14:08:29.835Z,-2.63
2022-12-15T14:11:00.019Z,-2.76
2022-12-15T14:13:34.646Z,-2.77
2022-12-15T14:16:07.679Z,-2.84
2022-12-15T14:18:37.509Z,-2.90
2022-12-15T14:21:23.889Z,-2.99
2022-12-15T14:26:41.409Z,-3.25
2022-12-15T14:29:09.776Z,-3.36
2022-12-15T14:31:38.194Z,-3.47
2022-12-15T14:34:22.935Z,-3.56
2022-12-15T14:36:51.542Z,-3.72
2022-12-15T14:39:27.114Z,-3.79
2022-12-15T14:41:55.198Z,-3.88
2022-12-15T14:44:31.764Z,-4.00
2022-12-15T14:47:08.601Z,-4.13
2022-12-15T14:49:41.232Z,-4.24
2022-12-15T14:52:19.884Z,-4.34
2022-12-15T14:54:57.483Z,-4.45
2022-12-15T14:57:41.704Z,-4.55
2022-12-15T15:00:26.220Z,-4.67
2022-12-15T15:03:07.203Z,-1.95
2022-12-15T15:03:10.519Z,-2.30
2022-12-15T15:06:01.927Z,-4.89
2022-12-15T15:08:32.724Z,-4.97
2022-12-15T15:11:19.347Z,-5.00
2022-12-15T15:13:47.437Z,-5.06
2022-12-15T15:16:16.885Z,-5.11
2022-12-15T15:18:52.393Z,-5.16
2022-12-15T15:21:28.770Z,-5.20
2022-12-15T15:23:59.854Z,-5.20
2022-12-15T15:26:28.715Z,-5.19
2022-12-15T15:28:56.693Z,-5.15
2022-12-15T15:31:24.430Z,-5.11
2022-12-15T15:33:52.847Z,-5.06
2022-12-15T15:36:22.031Z,-5.01
2022-12-15T15:38:49.712Z,-4.94
2022-12-15T15:41:22.048Z,-4.86
2022-12-15T15:43:49.918Z,-4.78
2022-12-15T15:46:26.299Z,-4.69
2022-12-15T15:48:57.409Z,-4.61
2022-12-15T15:51:26.471Z,-4.55
2022-12-15T15:54:01.582Z,-4.46
2022-12-15T15:56:30.900Z,-4.38
2022-12-15T15:59:13.508Z,-4.31
2022-12-15T16:01:41.408Z,-4.24
2022-12-15T16:04:09.553Z,-4.18
2022-12-15T16:06:39.747Z,-4.10
2022-12-15T16:09:14.030Z,-4.01
2022-12-15T16:11:41.748Z,-3.92
2022-12-15T16:14:16.574Z,-3.84
2022-12-15T16:16:44.771Z,-3.76
2022-12-15T16:19:12.790Z,-3.68
2022-12-15T16:21:41.128Z,-3.61
2022-12-15T16:24:12.995Z,-3.54
2022-12-15T16:26:47.320Z,-3.48
2022-12-15T16:29:16.689Z,-3.47
2022-12-15T16:31:47.642Z,-3.37
2022-12-15T16:34:21.835Z,-3.31
2022-12-15T16:36:49.692Z,-3.25
2022-12-15T16:39:24.874Z,-3.19
2022-12-15T16:41:54.205Z,-3.15
2022-12-15T16:44:23.587Z,-3.12
2022-12-15T16:46:51.712Z,-3.08
2022-12-15T16:49:19.582Z,-3.05
2022-12-15T16:51:52.426Z,-3.01
2022-12-15T16:54:24.075Z,-3.00
2022-12-15T16:56:53.862Z,-2.99
2022-12-15T16:59:33.110Z,-2.96
2022-12-15T17:02:02.251Z,-2.95
2022-12-15T17:04:30.091Z,-2.91
2022-12-15T17:06:57.815Z,-2.88
2022-12-15T17:09:25.692Z,-2.86
2022-12-15T17:11:53.788Z,-2.85
2022-12-15T17:14:21.488Z,-2.82
2022-12-15T17:16:49.213Z,-2.79
2022-12-15T17:19:21.126Z,-2.80
2022-12-15T17:21:52.030Z,-2.81
2022-12-15T17:24:21.329Z,-2.78
2022-12-15T17:26:49.858Z,-2.77
2022-12-15T17:29:20.435Z,-2.76
2022-12-15T17:31:48.243Z,-2.73
2022-12-15T17:34:30.307Z,-2.73
2022-12-15T17:37:00.454Z,-2.73
2022-12-15T17:39:29.278Z,-2.70
2022-12-15T17:42:00.420Z,-2.67
2022-12-15T17:44:35.072Z,-2.63
2022-12-15T17:47:06.347Z,-2.60
2022-12-15T17:49:37.748Z,-2.60
2022-12-15T17:52:31.536Z,-2.59
2022-12-15T17:55:00.330Z,-2.58
2022-12-15T17:57:31.634Z,-2.56
2022-12-15T18:00:01.909Z,-2.55
2022-12-15T18:02:30.949Z,-2.56
2022-12-15T18:04:59.633Z,-2.56
2022-12-15T18:07:27.396Z,-2.57
2022-12-15T18:09:55.151Z,-2.59
2022-12-15T18:12:26.248Z,-2.63
2022-12-15T18:14:55.338Z,-2.66
2022-12-15T18:17:23.719Z,-2.68
2022-12-15T18:19:51.646Z,-2.68
2022-12-15T18:22:23.967Z,-2.68
2022-12-15T18:24:53.365Z,-2.67
2022-12-15T18:27:26.978Z,-2.67
2022-12-15T18:29:56.602Z,-2.69
2022-12-15T18:32:26.738Z,-2.69
2022-12-15T18:34:55.033Z,-2.68
2022-12-15T18:37:24.989Z,-2.68
2022-12-15T18:39:53.475Z,-2.68
2022-12-15T18:42:23.050Z,-2.68
2022-12-15T18:44:52.318Z,-2.67
2022-12-15T18:47:22.597Z,-2.66
2022-12-15T18:49:50.884Z,-2.66
2022-12-15T18:52:25.010Z,-2.66
2022-12-15T18:54:54.608Z,-2.66
2022-12-15T18:57:34.810Z,-2.64
2022-12-15T19:00:13.707Z,-2.66
2022-12-15T19:02:42.043Z,-2.72
2022-12-15T19:05:27.542Z,-2.76
2022-12-15T19:08:25.442Z,-2.85
2022-12-15T19:10:58.510Z,-2.97
2022-12-15T19:13:32.301Z,-3.04
2022-12-15T19:16:01.562Z,-3.06
2022-12-15T19:18:48.686Z,-3.09
2022-12-15T19:21:43.003Z,-3.15
2022-12-15T19:24:12.964Z,-3.24
2022-12-15T19:26:41.104Z,-3.28
2022-12-15T19:29:23.572Z,-3.33
2022-12-15T19:31:52.124Z,-3.39
2022-12-15T19:34:19.824Z,-3.45
2022-12-15T19:36:47.561Z,-3.52
2022-12-15T19:39:21.213Z,-3.64
2022-12-15T19:41:49.088Z,-3.79
2022-12-15T19:44:17.220Z,-3.91
2022-12-15T19:46:45.108Z,-4.03
2022-12-15T19:49:14.422Z,-4.14
2022-12-15T19:51:42.581Z,-4.28
2022-12-15T19:54:17.219Z,-4.42
2022-12-15T19:56:44.893Z,-4.57
2022-12-15T19:59:22.402Z,-4.71
2022-12-15T20:01:51.783Z,-4.86
2022-12-15T20:04:24.104Z,-4.98
2022-12-15T20:06:52.117Z,-5.11
2022-12-15T20:09:19.934Z,-5.20
2022-12-15T20:11:47.583Z,-5.31
2022-12-15T20:14:17.501Z,-5.42
2022-12-15T20:16:45.736Z,-5.51
2022-12-15T20:19:13.619Z,-5.59
2022-12-15T20:21:41.767Z,-5.67
2022-12-15T20:24:16.589Z,-5.79
2022-12-15T20:26:45.011Z,-5.92
2022-12-15T20:29:30.904Z,-6.04
2022-12-15T20:31:59.654Z,-6.18
2022-12-15T20:34:27.818Z,-6.25
2022-12-15T20:36:55.508Z,-6.35
2022-12-15T20:39:27.207Z,-6.53
2022-12-15T20:41:56.063Z,-6.69
2022-12-15T20:44:24.619Z,-6.85
2022-12-15T20:46:52.403Z,-6.84
2022-12-15T20:49:21.537Z,-6.93
2022-12-15T20:51:49.379Z,-7.00
2022-12-15T20:54:20.679Z,-7.08
2022-12-15T20:56:49.489Z,-7.13
2022-12-15T20:59:17.897Z,-7.21
2022-12-15T21:01:46.596Z,-7.35
2022-12-15T21:04:20.607Z,-7.43
2022-12-15T21:06:54.300Z,-7.45
2022-12-15T21:09:23.167Z,-7.47
2022-12-15T21:11:55.016Z,-7.48
2022-12-15T21:14:24.041Z,-7.46
2022-12-15T21:16:52.329Z,-7.44
2022-12-15T21:19:21.611Z,-7.45
2022-12-15T21:22:17.861Z,-7.47
2022-12-15T21:24:46.299Z,-7.49
2022-12-15T21:27:16.910Z,-7.52
2022-12-15T21:29:50.426Z,-7.52
2022-12-15T21:32:20.982Z,-7.48
2022-12-15T21:34:49.965Z,-7.46
2022-12-15T21:37:28.747Z,-7.38
2022-12-15T21:39:56.703Z,-7.31
2022-12-15T21:42:24.635Z,-7.23
2022-12-15T21:44:52.453Z,-7.16
2022-12-15T21:47:24.856Z,-7.07
2022-12-15T21:49:52.628Z,-6.96
2022-12-15T21:52:27.046Z,-6.86
2022-12-15T21:54:54.815Z,-6.77
2022-12-15T21:57:22.517Z,-6.72
2022-12-15T21:59:50.309Z,-6.66
2022-12-15T22:02:26.954Z,-6.59
2022-12-15T22:04:55.256Z,-6.52
2022-12-15T22:07:23.307Z,-6.44
2022-12-15T22:09:51.892Z,-6.37
2022-12-15T22:12:22.858Z,-6.31
2022-12-15T22:14:50.916Z,-6.23
2022-12-15T22:17:21.771Z,-6.17
2022-12-15T22:19:49.545Z,-6.10
2022-12-15T22:22:18.123Z,-6.04
2022-12-15T22:24:45.989Z,-5.96
2022-12-15T22:27:20.096Z,-5.90
2022-12-15T22:29:48.662Z,-5.85
2022-12-15T22:32:16.914Z,-5.80
2022-12-15T22:34:44.682Z,-5.75
2022-12-15T22:37:12.371Z,-5.70
2022-12-15T22:39:40.042Z,-5.65
2022-12-15T22:42:10.157Z,-5.59
2022-12-15T22:44:38.056Z,-5.54
2022-12-15T22:47:06.297Z,-5.48
2022-12-15T22:49:36.277Z,-5.44
2022-12-15T22:52:15.605Z,-5.39
2022-12-15T22:54:46.016Z,-5.38
2022-12-15T22:57:27.488Z,-5.35
2022-12-15T23:00:00.707Z,-5.32
2022-12-15T23:02:31.566Z,-5.29
2022-12-15T23:04:59.810Z,-5.25
2022-12-15T23:07:27.840Z,-5.22
2022-12-15T23:10:17.381Z,-5.19
2022-12-15T23:12:45.219Z,-5.16
2022-12-15T23:15:31.893Z,-5.13
2022-12-15T23:17:59.632Z,-5.11
2022-12-15T23:20:27.512Z,-5.09
2022-12-15T23:22:55.373Z,-5.05
2022-12-15T23:25:23.034Z,-5.02
2022-12-15T23:27:50.721Z,-4.98
2022-12-15T23:30:18.448Z,-4.94
2022-12-15T23:32:46.413Z,-4.91
2022-12-15T23:35:14.431Z,-4.88
2022-12-15T23:37:42.139Z,-4.84
2022-12-15T23:40:10.446Z,-4.82
2022-12-15T23:42:38.182Z,-4.83
2022-12-15T23:45:06.505Z,-4.82
2022-12-15T23:47:34.272Z,-4.81
2022-12-15T23:50:02.047Z,-4.80
2022-12-15T23:52:29.887Z,-4.78
2022-12-15T23:54:57.544Z,-4.76
2022-12-15T23:57:25.409Z,-4.74
2022-12-15T23:59:53.194Z,-4.74
